sensor_id;sensor_type;location;lat;lon;timestamp;P1;durP1;ratioP1;P2;durP2;ratioP2
21569;SDS011;57598;50.888;4.746;2023-07-28T00:01:18;44.63;;;40.42;;
21569;SDS011;57598;50.888;4.746;2023-07-28T00:03:45;44.75;;;40.45;;
21569;SDS011;57598;50.888;4.746;2023-07-28T00:06:12;44.25;;;40.05;;
21569;SDS011;57598;50.888;4.746;2023-07-28T00:08:40;44.42;;;40.22;;
21569;SDS011;57598;50.888;4.746;2023-07-28T00:11:10;44.85;;;40.60;;
21569;SDS011;57598;50.888;4.746;2023-07-28T00:13:37;43.95;;;39.65;;
21569;SDS011;57598;50.888;4.746;2023-07-28T00:16:05;43.63;;;39.53;;
21569;SDS011;57598;50.888;4.746;2023-07-28T00:18:32;43.72;;;39.53;;
21569;SDS011;57598;50.888;4.746;2023-07-28T00:20:59;41.95;;;37.95;;
21569;SDS011;57598;50.888;4.746;2023-07-28T00:23:27;42.63;;;38.53;;
21569;SDS011;57598;50.888;4.746;2023-07-28T00:25:54;42.92;;;38.72;;
21569;SDS011;57598;50.888;4.746;2023-07-28T00:28:23;42.55;;;38.45;;
21569;SDS011;57598;50.888;4.746;2023-07-28T00:30:50;42.70;;;38.50;;
21569;SDS011;57598;50.888;4.746;2023-07-28T00:33:18;42.35;;;38.25;;
21569;SDS011;57598;50.888;4.746;2023-07-28T00:35:45;42.00;;;38.00;;
21569;SDS011;57598;50.888;4.746;2023-07-28T00:38:12;51.08;;;40.05;;
21569;SDS011;57598;50.888;4.746;2023-07-28T00:40:39;41.55;;;37.53;;
21569;SDS011;57598;50.888;4.746;2023-07-28T00:43:07;43.42;;;39.33;;
21569;SDS011;57598;50.888;4.746;2023-07-28T00:45:35;43.28;;;38.97;;
21569;SDS011;57598;50.888;4.746;2023-07-28T00:48:03;43.08;;;38.97;;
21569;SDS011;57598;50.888;4.746;2023-07-28T00:50:34;42.45;;;38.13;;
21569;SDS011;57598;50.888;4.746;2023-07-28T00:53:01;43.28;;;39.17;;
21569;SDS011;57598;50.888;4.746;2023-07-28T00:55:29;42.03;;;37.92;;
21569;SDS011;57598;50.888;4.746;2023-07-28T00:57:56;41.75;;;37.65;;
21569;SDS011;57598;50.888;4.746;2023-07-28T01:00:23;40.70;;;36.70;;
21569;SDS011;57598;50.888;4.746;2023-07-28T01:02:52;41.45;;;37.40;;
21569;SDS011;57598;50.888;4.746;2023-07-28T01:05:20;41.15;;;37.15;;
21569;SDS011;57598;50.888;4.746;2023-07-28T01:07:51;40.70;;;36.80;;
21569;SDS011;57598;50.888;4.746;2023-07-28T01:10:22;39.30;;;35.50;;
21569;SDS011;57598;50.888;4.746;2023-07-28T01:12:51;39.35;;;35.47;;
21569;SDS011;57598;50.888;4.746;2023-07-28T01:15:18;39.33;;;35.38;;
21569;SDS011;57598;50.888;4.746;2023-07-28T01:17:46;38.67;;;34.80;;
21569;SDS011;57598;50.888;4.746;2023-07-28T01:20:14;39.15;;;35.25;;
21569;SDS011;57598;50.888;4.746;2023-07-28T01:22:49;38.35;;;34.45;;
21569;SDS011;57598;50.888;4.746;2023-07-28T01:25:22;37.42;;;33.63;;
21569;SDS011;57598;50.888;4.746;2023-07-28T01:27:56;38.45;;;34.53;;
21569;SDS011;57598;50.888;4.746;2023-07-28T01:30:24;38.58;;;34.67;;
21569;SDS011;57598;50.888;4.746;2023-07-28T01:32:53;39.83;;;35.72;;
21569;SDS011;57598;50.888;4.746;2023-07-28T01:35:21;38.35;;;34.35;;
21569;SDS011;57598;50.888;4.746;2023-07-28T01:37:48;40.38;;;36.17;;
21569;SDS011;57598;50.888;4.746;2023-07-28T01:40:16;39.00;;;35.00;;
21569;SDS011;57598;50.888;4.746;2023-07-28T01:42:43;39.25;;;35.15;;
21569;SDS011;57598;50.888;4.746;2023-07-28T01:45:12;38.22;;;34.33;;
21569;SDS011;57598;50.888;4.746;2023-07-28T01:47:39;39.15;;;35.05;;
21569;SDS011;57598;50.888;4.746;2023-07-28T01:50:07;40.60;;;36.25;;
21569;SDS011;57598;50.888;4.746;2023-07-28T01:52:34;38.70;;;34.63;;
21569;SDS011;57598;50.888;4.746;2023-07-28T01:55:01;40.00;;;35.80;;
21569;SDS011;57598;50.888;4.746;2023-07-28T01:59:56;40.78;;;36.50;;
21569;SDS011;57598;50.888;4.746;2023-07-28T02:02:25;40.55;;;36.35;;
21569;SDS011;57598;50.888;4.746;2023-07-28T02:04:52;40.30;;;36.20;;
21569;SDS011;57598;50.888;4.746;2023-07-28T02:07:20;40.47;;;36.38;;
21569;SDS011;57598;50.888;4.746;2023-07-28T02:09:47;39.88;;;35.78;;
21569;SDS011;57598;50.888;4.746;2023-07-28T02:12:14;40.72;;;36.53;;
21569;SDS011;57598;50.888;4.746;2023-07-28T02:14:41;41.00;;;36.70;;
21569;SDS011;57598;50.888;4.746;2023-07-28T02:17:09;41.67;;;37.15;;
21569;SDS011;57598;50.888;4.746;2023-07-28T02:19:37;40.33;;;36.22;;
21569;SDS011;57598;50.888;4.746;2023-07-28T02:22:05;41.55;;;37.15;;
21569;SDS011;57598;50.888;4.746;2023-07-28T02:24:32;40.40;;;36.20;;
21569;SDS011;57598;50.888;4.746;2023-07-28T02:26:59;40.47;;;36.35;;
21569;SDS011;57598;50.888;4.746;2023-07-28T02:29:27;40.15;;;36.00;;
21569;SDS011;57598;50.888;4.746;2023-07-28T02:31:54;41.97;;;37.67;;
21569;SDS011;57598;50.888;4.746;2023-07-28T02:34:21;41.72;;;37.42;;
21569;SDS011;57598;50.888;4.746;2023-07-28T02:36:50;40.03;;;35.92;;
21569;SDS011;57598;50.888;4.746;2023-07-28T02:39:17;41.65;;;37.40;;
21569;SDS011;57598;50.888;4.746;2023-07-28T02:41:45;43.83;;;37.97;;
21569;SDS011;57598;50.888;4.746;2023-07-28T02:44:12;40.50;;;36.40;;
21569;SDS011;57598;50.888;4.746;2023-07-28T02:46:40;41.13;;;36.92;;
21569;SDS011;57598;50.888;4.746;2023-07-28T02:49:07;40.55;;;36.35;;
21569;SDS011;57598;50.888;4.746;2023-07-28T02:51:34;40.90;;;36.80;;
21569;SDS011;57598;50.888;4.746;2023-07-28T02:54:03;40.40;;;36.30;;
21569;SDS011;57598;50.888;4.746;2023-07-28T02:56:31;40.50;;;36.28;;
21569;SDS011;57598;50.888;4.746;2023-07-28T02:59:02;42.03;;;37.65;;
21569;SDS011;57598;50.888;4.746;2023-07-28T03:01:29;41.47;;;37.28;;
21569;SDS011;57598;50.888;4.746;2023-07-28T03:03:58;41.10;;;36.90;;
21569;SDS011;57598;50.888;4.746;2023-07-28T03:06:25;41.38;;;37.17;;
21569;SDS011;57598;50.888;4.746;2023-07-28T03:08:53;39.63;;;35.63;;
21569;SDS011;57598;50.888;4.746;2023-07-28T03:11:21;39.13;;;35.03;;
21569;SDS011;57598;50.888;4.746;2023-07-28T03:13:48;39.05;;;35.05;;
21569;SDS011;57598;50.888;4.746;2023-07-28T03:16:16;40.05;;;35.72;;
21569;SDS011;57598;50.888;4.746;2023-07-28T03:18:43;39.95;;;35.75;;
21569;SDS011;57598;50.888;4.746;2023-07-28T03:21:11;38.13;;;34.25;;
21569;SDS011;57598;50.888;4.746;2023-07-28T03:23:38;37.85;;;34.03;;
21569;SDS011;57598;50.888;4.746;2023-07-28T03:26:05;37.92;;;34.08;;
21569;SDS011;57598;50.888;4.746;2023-07-28T03:28:34;37.80;;;33.90;;
21569;SDS011;57598;50.888;4.746;2023-07-28T03:31:01;37.17;;;33.38;;
21569;SDS011;57598;50.888;4.746;2023-07-28T03:33:28;37.30;;;33.50;;
21569;SDS011;57598;50.888;4.746;2023-07-28T03:35:56;38.50;;;34.60;;
21569;SDS011;57598;50.888;4.746;2023-07-28T03:38:23;37.80;;;34.00;;
21569;SDS011;57598;50.888;4.746;2023-07-28T03:40:50;36.75;;;33.05;;
21569;SDS011;57598;50.888;4.746;2023-07-28T03:43:17;38.25;;;34.45;;
21569;SDS011;57598;50.888;4.746;2023-07-28T03:45:46;37.55;;;33.75;;
21569;SDS011;57598;50.888;4.746;2023-07-28T03:48:13;36.78;;;33.08;;
21569;SDS011;57598;50.888;4.746;2023-07-28T03:50:41;36.65;;;33.05;;
21569;SDS011;57598;50.888;4.746;2023-07-28T03:53:08;36.60;;;32.95;;
21569;SDS011;57598;50.888;4.746;2023-07-28T03:55:35;35.78;;;32.17;;
21569;SDS011;57598;50.888;4.746;2023-07-28T03:58:02;36.03;;;32.42;;
21569;SDS011;57598;50.888;4.746;2023-07-28T04:00:30;36.08;;;32.53;;
21569;SDS011;57598;50.888;4.746;2023-07-28T04:02:58;36.45;;;32.85;;
21569;SDS011;57598;50.888;4.746;2023-07-28T04:05:26;36.35;;;32.85;;
21569;SDS011;57598;50.888;4.746;2023-07-28T04:07:53;36.00;;;32.50;;
21569;SDS011;57598;50.888;4.746;2023-07-28T04:10:20;35.63;;;32.20;;
21569;SDS011;57598;50.888;4.746;2023-07-28T04:12:48;36.47;;;32.88;;
21569;SDS011;57598;50.888;4.746;2023-07-28T04:15:15;36.58;;;32.97;;
21569;SDS011;57598;50.888;4.746;2023-07-28T04:17:43;37.30;;;33.60;;
21569;SDS011;57598;50.888;4.746;2023-07-28T04:20:11;36.45;;;32.85;;
21569;SDS011;57598;50.888;4.746;2023-07-28T04:22:39;34.97;;;31.52;;
21569;SDS011;57598;50.888;4.746;2023-07-28T04:25:06;37.03;;;33.15;;
21569;SDS011;57598;50.888;4.746;2023-07-28T04:27:34;36.05;;;32.55;;
21569;SDS011;57598;50.888;4.746;2023-07-28T04:30:01;35.25;;;31.85;;
21569;SDS011;57598;50.888;4.746;2023-07-28T04:32:28;36.08;;;32.65;;
21569;SDS011;57598;50.888;4.746;2023-07-28T04:34:55;38.03;;;34.05;;
21569;SDS011;57598;50.888;4.746;2023-07-28T04:37:24;37.08;;;33.47;;
21569;SDS011;57598;50.888;4.746;2023-07-28T04:39:51;35.05;;;31.65;;
21569;SDS011;57598;50.888;4.746;2023-07-28T04:42:18;35.15;;;31.85;;
21569;SDS011;57598;50.888;4.746;2023-07-28T04:44:46;35.45;;;32.15;;
21569;SDS011;57598;50.888;4.746;2023-07-28T04:47:13;35.83;;;32.50;;
21569;SDS011;57598;50.888;4.746;2023-07-28T04:49:40;35.28;;;31.98;;
21569;SDS011;57598;50.888;4.746;2023-07-28T04:52:07;34.35;;;31.20;;
21569;SDS011;57598;50.888;4.746;2023-07-28T04:54:36;34.90;;;31.75;;
21569;SDS011;57598;50.888;4.746;2023-07-28T04:57:04;36.83;;;33.53;;
21569;SDS011;57598;50.888;4.746;2023-07-28T04:59:31;36.40;;;33.00;;
21569;SDS011;57598;50.888;4.746;2023-07-28T05:01:58;36.65;;;33.15;;
21569;SDS011;57598;50.888;4.746;2023-07-28T05:04:25;34.70;;;31.50;;
21569;SDS011;57598;50.888;4.746;2023-07-28T05:06:53;35.05;;;31.85;;
21569;SDS011;57598;50.888;4.746;2023-07-28T05:09:20;35.20;;;32.08;;
21569;SDS011;57598;50.888;4.746;2023-07-28T05:11:49;34.22;;;31.23;;
21569;SDS011;57598;50.888;4.746;2023-07-28T05:14:17;35.72;;;32.42;;
21569;SDS011;57598;50.888;4.746;2023-07-28T05:16:44;35.42;;;32.22;;
21569;SDS011;57598;50.888;4.746;2023-07-28T05:19:12;35.88;;;32.67;;
21569;SDS011;57598;50.888;4.746;2023-07-28T05:21:40;35.78;;;32.58;;
21569;SDS011;57598;50.888;4.746;2023-07-28T05:24:07;35.10;;;32.00;;
21569;SDS011;57598;50.888;4.746;2023-07-28T05:26:34;35.33;;;32.22;;
21569;SDS011;57598;50.888;4.746;2023-07-28T05:29:03;35.20;;;32.10;;
21569;SDS011;57598;50.888;4.746;2023-07-28T05:31:30;35.75;;;32.63;;
21569;SDS011;57598;50.888;4.746;2023-07-28T05:33:57;34.33;;;31.33;;
21569;SDS011;57598;50.888;4.746;2023-07-28T05:36:24;34.70;;;31.75;;
21569;SDS011;57598;50.888;4.746;2023-07-28T05:38:52;36.17;;;33.00;;
21569;SDS011;57598;50.888;4.746;2023-07-28T05:41:21;34.60;;;31.60;;
21569;SDS011;57598;50.888;4.746;2023-07-28T05:43:48;35.63;;;32.53;;
21569;SDS011;57598;50.888;4.746;2023-07-28T05:46:17;36.67;;;33.47;;
21569;SDS011;57598;50.888;4.746;2023-07-28T05:48:44;37.40;;;34.10;;
21569;SDS011;57598;50.888;4.746;2023-07-28T05:51:12;36.60;;;33.30;;
21569;SDS011;57598;50.888;4.746;2023-07-28T05:53:39;37.83;;;34.63;;
21569;SDS011;57598;50.888;4.746;2023-07-28T05:56:06;36.88;;;33.67;;
21569;SDS011;57598;50.888;4.746;2023-07-28T05:58:33;38.22;;;34.92;;
21569;SDS011;57598;50.888;4.746;2023-07-28T06:01:01;36.90;;;33.70;;
21569;SDS011;57598;50.888;4.746;2023-07-28T06:03:29;36.05;;;32.90;;
21569;SDS011;57598;50.888;4.746;2023-07-28T06:05:57;37.17;;;33.97;;
21569;SDS011;57598;50.888;4.746;2023-07-28T06:08:24;39.28;;;35.88;;
21569;SDS011;57598;50.888;4.746;2023-07-28T06:10:51;37.33;;;34.13;;
21569;SDS011;57598;50.888;4.746;2023-07-28T06:13:18;34.45;;;31.52;;
21569;SDS011;57598;50.888;4.746;2023-07-28T06:15:46;34.65;;;31.77;;
21569;SDS011;57598;50.888;4.746;2023-07-28T06:18:13;35.22;;;32.22;;
21569;SDS011;57598;50.888;4.746;2023-07-28T06:20:43;34.42;;;31.52;;
21569;SDS011;57598;50.888;4.746;2023-07-28T06:23:10;34.35;;;31.45;;
21569;SDS011;57598;50.888;4.746;2023-07-28T06:25:38;34.67;;;31.75;;
21569;SDS011;57598;50.888;4.746;2023-07-28T06:28:09;35.45;;;32.35;;
21569;SDS011;57598;50.888;4.746;2023-07-28T06:30:36;35.58;;;32.47;;
21569;SDS011;57598;50.888;4.746;2023-07-28T06:33:05;37.10;;;33.90;;
21569;SDS011;57598;50.888;4.746;2023-07-28T06:35:32;37.53;;;34.22;;
21569;SDS011;57598;50.888;4.746;2023-07-28T06:38:01;37.30;;;34.00;;
21569;SDS011;57598;50.888;4.746;2023-07-28T06:40:28;37.72;;;34.42;;
21569;SDS011;57598;50.888;4.746;2023-07-28T06:42:55;36.80;;;33.50;;
21569;SDS011;57598;50.888;4.746;2023-07-28T06:45:23;36.13;;;32.92;;
21569;SDS011;57598;50.888;4.746;2023-07-28T06:47:50;36.90;;;33.50;;
21569;SDS011;57598;50.888;4.746;2023-07-28T06:50:18;35.60;;;32.30;;
21569;SDS011;57598;50.888;4.746;2023-07-28T06:52:45;34.92;;;31.63;;
21569;SDS011;57598;50.888;4.746;2023-07-28T06:55:14;35.95;;;32.80;;
21569;SDS011;57598;50.888;4.746;2023-07-28T06:57:41;35.08;;;32.08;;
21569;SDS011;57598;50.888;4.746;2023-07-28T07:00:09;35.28;;;32.28;;
21569;SDS011;57598;50.888;4.746;2023-07-28T07:02:37;36.00;;;33.00;;
21569;SDS011;57598;50.888;4.746;2023-07-28T07:05:04;33.15;;;30.25;;
21569;SDS011;57598;50.888;4.746;2023-07-28T07:07:31;34.25;;;31.25;;
21569;SDS011;57598;50.888;4.746;2023-07-28T07:09:59;36.20;;;33.03;;
21569;SDS011;57598;50.888;4.746;2023-07-28T07:12:27;35.20;;;32.10;;
21569;SDS011;57598;50.888;4.746;2023-07-28T07:14:55;34.72;;;31.63;;
21569;SDS011;57598;50.888;4.746;2023-07-28T07:17:22;35.17;;;31.98;;
21569;SDS011;57598;50.888;4.746;2023-07-28T07:19:49;33.80;;;30.80;;
21569;SDS011;57598;50.888;4.746;2023-07-28T07:22:16;35.10;;;31.92;;
21569;SDS011;57598;50.888;4.746;2023-07-28T07:24:44;36.67;;;33.38;;
21569;SDS011;57598;50.888;4.746;2023-07-28T07:27:11;37.05;;;33.70;;
21569;SDS011;57598;50.888;4.746;2023-07-28T07:29:40;38.28;;;34.78;;
21569;SDS011;57598;50.888;4.746;2023-07-28T07:32:07;38.92;;;35.42;;
21569;SDS011;57598;50.888;4.746;2023-07-28T07:34:36;40.70;;;35.92;;
21569;SDS011;57598;50.888;4.746;2023-07-28T07:37:04;37.88;;;34.47;;
21569;SDS011;57598;50.888;4.746;2023-07-28T07:39:31;37.58;;;34.22;;
21569;SDS011;57598;50.888;4.746;2023-07-28T07:41:59;37.80;;;34.40;;
21569;SDS011;57598;50.888;4.746;2023-07-28T07:44:26;40.00;;;36.40;;
21569;SDS011;57598;50.888;4.746;2023-07-28T07:46:55;41.47;;;37.67;;
21569;SDS011;57598;50.888;4.746;2023-07-28T07:49:22;73.75;;;67.45;;
21569;SDS011;57598;50.888;4.746;2023-07-28T07:51:50;78.47;;;71.88;;
21569;SDS011;57598;50.888;4.746;2023-07-28T07:54:17;80.80;;;74.30;;
21569;SDS011;57598;50.888;4.746;2023-07-28T07:56:44;79.63;;;73.13;;
21569;SDS011;57598;50.888;4.746;2023-07-28T07:59:12;83.05;;;76.35;;
21569;SDS011;57598;50.888;4.746;2023-07-28T08:01:39;89.45;;;82.55;;
21569;SDS011;57598;50.888;4.746;2023-07-28T08:04:09;84.55;;;78.15;;
21569;SDS011;57598;50.888;4.746;2023-07-28T08:06:36;59.65;;;54.65;;
21569;SDS011;57598;50.888;4.746;2023-07-28T08:09:04;51.30;;;47.00;;
21569;SDS011;57598;50.888;4.746;2023-07-28T08:11:31;47.80;;;43.90;;
21569;SDS011;57598;50.888;4.746;2023-07-28T08:13:59;44.00;;;40.50;;
21569;SDS011;57598;50.888;4.746;2023-07-28T08:16:26;39.35;;;36.15;;
21569;SDS011;57598;50.888;4.746;2023-07-28T08:18:53;38.47;;;35.28;;
21569;SDS011;57598;50.888;4.746;2023-07-28T08:21:22;35.58;;;32.47;;
21569;SDS011;57598;50.888;4.746;2023-07-28T08:23:49;40.53;;;36.72;;
21569;SDS011;57598;50.888;4.746;2023-07-28T08:26:16;43.08;;;38.95;;
21569;SDS011;57598;50.888;4.746;2023-07-28T08:28:44;45.95;;;41.55;;
21569;SDS011;57598;50.888;4.746;2023-07-28T08:31:11;45.22;;;40.92;;
21569;SDS011;57598;50.888;4.746;2023-07-28T08:33:38;45.88;;;41.58;;
21569;SDS011;57598;50.888;4.746;2023-07-28T08:36:06;46.50;;;42.30;;
21569;SDS011;57598;50.888;4.746;2023-07-28T08:38:34;46.65;;;42.45;;
21569;SDS011;57598;50.888;4.746;2023-07-28T08:41:01;47.95;;;43.75;;
21569;SDS011;57598;50.888;4.746;2023-07-28T08:43:29;45.65;;;41.45;;
21569;SDS011;57598;50.888;4.746;2023-07-28T08:45:56;45.63;;;41.53;;
21569;SDS011;57598;50.888;4.746;2023-07-28T08:48:23;48.67;;;44.38;;
21569;SDS011;57598;50.888;4.746;2023-07-28T08:50:52;48.92;;;44.72;;
21569;SDS011;57598;50.888;4.746;2023-07-28T08:53:19;46.08;;;42.17;;
21569;SDS011;57598;50.888;4.746;2023-07-28T08:55:48;44.47;;;40.75;;
21569;SDS011;57598;50.888;4.746;2023-07-28T08:58:15;45.42;;;41.63;;
21569;SDS011;57598;50.888;4.746;2023-07-28T09:00:44;44.05;;;40.25;;
21569;SDS011;57598;50.888;4.746;2023-07-28T09:03:14;44.00;;;40.00;;
21569;SDS011;57598;50.888;4.746;2023-07-28T09:05:41;43.25;;;39.35;;
21569;SDS011;57598;50.888;4.746;2023-07-28T09:08:09;43.78;;;39.88;;
21569;SDS011;57598;50.888;4.746;2023-07-28T09:10:40;45.70;;;41.58;;
21569;SDS011;57598;50.888;4.746;2023-07-28T09:15:36;51.00;;;46.40;;
21569;SDS011;57598;50.888;4.746;2023-07-28T09:18:03;51.05;;;46.30;;
21569;SDS011;57598;50.888;4.746;2023-07-28T09:20:34;52.28;;;47.58;;
21569;SDS011;57598;50.888;4.746;2023-07-28T09:23:01;51.10;;;46.50;;
21569;SDS011;57598;50.888;4.746;2023-07-28T09:25:30;49.83;;;45.53;;
21569;SDS011;57598;50.888;4.746;2023-07-28T09:27:58;49.92;;;45.63;;
21569;SDS011;57598;50.888;4.746;2023-07-28T09:30:25;47.05;;;42.95;;
21569;SDS011;57598;50.888;4.746;2023-07-28T09:32:54;47.60;;;43.60;;
21569;SDS011;57598;50.888;4.746;2023-07-28T09:35:22;48.30;;;44.10;;
21569;SDS011;57598;50.888;4.746;2023-07-28T09:37:50;47.60;;;43.40;;
21569;SDS011;57598;50.888;4.746;2023-07-28T09:40:20;44.83;;;40.93;;
21569;SDS011;57598;50.888;4.746;2023-07-28T09:42:48;43.75;;;39.95;;
21569;SDS011;57598;50.888;4.746;2023-07-28T09:45:16;41.90;;;38.20;;
21569;SDS011;57598;50.888;4.746;2023-07-28T09:47:44;41.67;;;38.08;;
21569;SDS011;57598;50.888;4.746;2023-07-28T09:50:13;41.58;;;37.97;;
21569;SDS011;57598;50.888;4.746;2023-07-28T09:52:42;42.55;;;38.83;;
21569;SDS011;57598;50.888;4.746;2023-07-28T09:55:10;43.22;;;39.45;;
21569;SDS011;57598;50.888;4.746;2023-07-28T09:57:39;40.03;;;36.50;;
21569;SDS011;57598;50.888;4.746;2023-07-28T10:00:08;40.53;;;37.03;;
21569;SDS011;57598;50.888;4.746;2023-07-28T10:02:38;42.80;;;39.20;;
21569;SDS011;57598;50.888;4.746;2023-07-28T10:05:06;42.33;;;38.72;;
21569;SDS011;57598;50.888;4.746;2023-07-28T10:07:37;41.97;;;38.38;;
21569;SDS011;57598;50.888;4.746;2023-07-28T10:10:06;39.63;;;36.22;;
21569;SDS011;57598;50.888;4.746;2023-07-28T10:12:39;39.53;;;36.13;;
21569;SDS011;57598;50.888;4.746;2023-07-28T10:15:08;39.08;;;35.70;;
21569;SDS011;57598;50.888;4.746;2023-07-28T10:17:41;40.70;;;37.10;;
21569;SDS011;57598;50.888;4.746;2023-07-28T10:22:54;42.00;;;38.30;;
21569;SDS011;57598;50.888;4.746;2023-07-28T10:25:28;42.53;;;38.88;;
21569;SDS011;57598;50.888;4.746;2023-07-28T10:27:58;46.23;;;42.33;;
21569;SDS011;57598;50.888;4.746;2023-07-28T10:30:27;48.35;;;44.25;;
21569;SDS011;57598;50.888;4.746;2023-07-28T10:32:55;49.42;;;45.28;;
21569;SDS011;57598;50.888;4.746;2023-07-28T10:35:23;51.17;;;46.88;;
21569;SDS011;57598;50.888;4.746;2023-07-28T10:37:50;55.90;;;51.20;;
21569;SDS011;57598;50.888;4.746;2023-07-28T10:40:25;54.05;;;49.50;;
21569;SDS011;57598;50.888;4.746;2023-07-28T10:42:55;54.28;;;49.67;;
21569;SDS011;57598;50.888;4.746;2023-07-28T10:45:24;54.67;;;49.97;;
21569;SDS011;57598;50.888;4.746;2023-07-28T10:47:52;55.53;;;50.83;;
21569;SDS011;57598;50.888;4.746;2023-07-28T10:50:20;58.33;;;53.45;;
21569;SDS011;57598;50.888;4.746;2023-07-28T10:52:48;58.72;;;53.60;;
21569;SDS011;57598;50.888;4.746;2023-07-28T10:55:16;58.33;;;53.53;;
21569;SDS011;57598;50.888;4.746;2023-07-28T10:57:45;58.60;;;53.80;;
21569;SDS011;57598;50.888;4.746;2023-07-28T11:00:13;54.88;;;50.38;;
21569;SDS011;57598;50.888;4.746;2023-07-28T11:02:41;57.67;;;52.95;;
21569;SDS011;57598;50.888;4.746;2023-07-28T11:05:10;58.00;;;53.20;;
21569;SDS011;57598;50.888;4.746;2023-07-28T11:07:40;56.05;;;51.35;;
21569;SDS011;57598;50.888;4.746;2023-07-28T11:10:08;57.70;;;53.03;;
21569;SDS011;57598;50.888;4.746;2023-07-28T11:12:38;59.50;;;54.90;;
21569;SDS011;57598;50.888;4.746;2023-07-28T11:15:09;58.80;;;54.10;;
21569;SDS011;57598;50.888;4.746;2023-07-28T11:17:37;59.20;;;54.55;;
21569;SDS011;57598;50.888;4.746;2023-07-28T11:20:06;59.45;;;54.95;;
21569;SDS011;57598;50.888;4.746;2023-07-28T11:22:41;56.65;;;52.25;;
21569;SDS011;57598;50.888;4.746;2023-07-28T11:25:09;58.20;;;53.80;;
21569;SDS011;57598;50.888;4.746;2023-07-28T11:27:36;56.63;;;52.22;;
21569;SDS011;57598;50.888;4.746;2023-07-28T11:30:04;59.60;;;55.00;;
21569;SDS011;57598;50.888;4.746;2023-07-28T11:32:35;59.38;;;54.88;;
21569;SDS011;57598;50.888;4.746;2023-07-28T11:35:03;55.33;;;51.13;;
21569;SDS011;57598;50.888;4.746;2023-07-28T11:37:31;58.47;;;54.08;;
21569;SDS011;57598;50.888;4.746;2023-07-28T11:39:59;58.88;;;54.40;;
21569;SDS011;57598;50.888;4.746;2023-07-28T11:42:27;59.38;;;54.88;;
21569;SDS011;57598;50.888;4.746;2023-07-28T11:44:54;58.95;;;54.65;;
21569;SDS011;57598;50.888;4.746;2023-07-28T11:47:22;60.83;;;56.22;;
21569;SDS011;57598;50.888;4.746;2023-07-28T11:49:51;61.17;;;56.58;;
21569;SDS011;57598;50.888;4.746;2023-07-28T11:52:19;60.42;;;55.83;;
21569;SDS011;57598;50.888;4.746;2023-07-28T11:54:46;56.17;;;51.70;;
21569;SDS011;57598;50.888;4.746;2023-07-28T11:57:14;56.90;;;52.50;;
21569;SDS011;57598;50.888;4.746;2023-07-28T11:59:41;58.47;;;53.97;;
21569;SDS011;57598;50.888;4.746;2023-07-28T12:02:09;55.42;;;51.13;;
21569;SDS011;57598;50.888;4.746;2023-07-28T12:04:37;57.08;;;52.53;;
21569;SDS011;57598;50.888;4.746;2023-07-28T12:07:09;56.72;;;52.45;;
21569;SDS011;57598;50.888;4.746;2023-07-28T12:09:50;54.65;;;50.55;;
21569;SDS011;57598;50.888;4.746;2023-07-28T12:12:24;54.88;;;50.78;;
21569;SDS011;57598;50.888;4.746;2023-07-28T12:14:52;55.35;;;51.35;;
21569;SDS011;57598;50.888;4.746;2023-07-28T12:17:20;54.15;;;50.13;;
21569;SDS011;57598;50.888;4.746;2023-07-28T12:20:01;55.50;;;51.47;;
21569;SDS011;57598;50.888;4.746;2023-07-28T12:22:33;58.08;;;53.63;;
21569;SDS011;57598;50.888;4.746;2023-07-28T12:25:00;55.72;;;51.65;;
21569;SDS011;57598;50.888;4.746;2023-07-28T12:27:27;56.55;;;52.50;;
21569;SDS011;57598;50.888;4.746;2023-07-28T12:29:55;60.13;;;56.03;;
21569;SDS011;57598;50.888;4.746;2023-07-28T12:32:22;54.97;;;51.28;;
21569;SDS011;57598;50.888;4.746;2023-07-28T12:34:50;57.75;;;53.92;;
21569;SDS011;57598;50.888;4.746;2023-07-28T12:37:18;57.75;;;54.15;;
21569;SDS011;57598;50.888;4.746;2023-07-28T12:39:48;54.90;;;51.38;;
21569;SDS011;57598;50.888;4.746;2023-07-28T12:42:15;53.67;;;50.35;;
21569;SDS011;57598;50.888;4.746;2023-07-28T12:44:43;47.33;;;44.33;;
21569;SDS011;57598;50.888;4.746;2023-07-28T12:47:10;45.15;;;42.45;;
21569;SDS011;57598;50.888;4.746;2023-07-28T12:49:38;42.42;;;40.00;;
21569;SDS011;57598;50.888;4.746;2023-07-28T12:52:05;39.78;;;37.47;;
21569;SDS011;57598;50.888;4.746;2023-07-28T12:54:34;38.20;;;36.00;;
21569;SDS011;57598;50.888;4.746;2023-07-28T12:57:03;33.13;;;31.23;;
21569;SDS011;57598;50.888;4.746;2023-07-28T12:59:32;30.75;;;28.95;;
21569;SDS011;57598;50.888;4.746;2023-07-28T13:01:59;32.58;;;30.67;;
21569;SDS011;57598;50.888;4.746;2023-07-28T13:04:26;34.15;;;32.15;;
21569;SDS011;57598;50.888;4.746;2023-07-28T13:06:54;31.63;;;29.83;;
21569;SDS011;57598;50.888;4.746;2023-07-28T13:09:21;30.08;;;28.38;;
21569;SDS011;57598;50.888;4.746;2023-07-28T13:11:49;28.27;;;26.67;;
21569;SDS011;57598;50.888;4.746;2023-07-28T13:14:17;28.13;;;26.42;;
21569;SDS011;57598;50.888;4.746;2023-07-28T13:16:44;27.38;;;25.77;;
21569;SDS011;57598;50.888;4.746;2023-07-28T13:19:12;26.83;;;25.33;;
21569;SDS011;57598;50.888;4.746;2023-07-28T13:21:39;28.38;;;26.77;;
21569;SDS011;57598;50.888;4.746;2023-07-28T13:24:06;25.90;;;24.40;;
21569;SDS011;57598;50.888;4.746;2023-07-28T13:26:34;24.48;;;23.08;;
21569;SDS011;57598;50.888;4.746;2023-07-28T13:29:01;24.60;;;23.17;;
21569;SDS011;57598;50.888;4.746;2023-07-28T13:31:33;24.98;;;23.58;;
21569;SDS011;57598;50.888;4.746;2023-07-28T13:34:00;25.20;;;23.70;;
21569;SDS011;57598;50.888;4.746;2023-07-28T13:36:28;22.25;;;21.05;;
21569;SDS011;57598;50.888;4.746;2023-07-28T13:38:55;24.85;;;23.33;;
21569;SDS011;57598;50.888;4.746;2023-07-28T13:41:22;23.35;;;22.05;;
21569;SDS011;57598;50.888;4.746;2023-07-28T13:43:50;22.70;;;21.40;;
21569;SDS011;57598;50.888;4.746;2023-07-28T13:46:17;22.77;;;21.48;;
21569;SDS011;57598;50.888;4.746;2023-07-28T13:48:46;23.10;;;21.80;;
21569;SDS011;57598;50.888;4.746;2023-07-28T13:51:13;24.58;;;22.63;;
21569;SDS011;57598;50.888;4.746;2023-07-28T13:53:40;24.67;;;23.27;;
21569;SDS011;57598;50.888;4.746;2023-07-28T13:56:08;24.90;;;23.50;;
21569;SDS011;57598;50.888;4.746;2023-07-28T13:58:35;26.00;;;24.52;;
21569;SDS011;57598;50.888;4.746;2023-07-28T14:01:03;24.92;;;23.42;;
21569;SDS011;57598;50.888;4.746;2023-07-28T14:03:30;23.52;;;22.23;;
21569;SDS011;57598;50.888;4.746;2023-07-28T14:05:59;22.73;;;21.42;;
21569;SDS011;57598;50.888;4.746;2023-07-28T14:08:26;22.67;;;21.27;;
21569;SDS011;57598;50.888;4.746;2023-07-28T14:10:53;23.05;;;21.75;;
21569;SDS011;57598;50.888;4.746;2023-07-28T14:13:20;22.63;;;21.33;;
21569;SDS011;57598;50.888;4.746;2023-07-28T14:15:49;22.52;;;21.23;;
21569;SDS011;57598;50.888;4.746;2023-07-28T14:18:17;23.23;;;21.73;;
21569;SDS011;57598;50.888;4.746;2023-07-28T14:20:44;23.23;;;21.92;;
21569;SDS011;57598;50.888;4.746;2023-07-28T14:23:23;22.88;;;21.58;;
21569;SDS011;57598;50.888;4.746;2023-07-28T14:25:50;22.92;;;21.52;;
21569;SDS011;57598;50.888;4.746;2023-07-28T14:28:18;22.95;;;21.40;;
21569;SDS011;57598;50.888;4.746;2023-07-28T14:30:46;23.70;;;22.40;;
21569;SDS011;57598;50.888;4.746;2023-07-28T14:33:15;22.42;;;21.13;;